Time;durP1;ratioP1;P1;durP2;ratioP2;P2;SDS_P1;SDS_P2;PMS_P1;PMS_P2;Temp;Humidity;BMP_temperature;BMP_pressure;BME280_temperature;BME280_humidity;BME280_pressure;Samples;Min_cycle;Max_cycle;Signal;HPM_P1;HPM_P2
2022/12/03 00:00:02;;;;;;;16.95;10.55;;;0.90;99.90;;;;;;497172;239;27540;-64
2022/12/03 00:02:03;;;;;;;16.50;10.23;;;1.00;99.90;;;;;;497179;239;28000;-66
2022/12/03 00:04:05;;;;;;;13.98;9.73;;;1.00;99.90;;;;;;497155;239;27988;-65
2022/12/03 00:06:06;;;;;;;16.87;10.82;;;1.00;99.90;;;;;;497185;239;27445;-67
2022/12/03 00:08:07;;;;;;;17.20;10.73;;;0.90;99.90;;;;;;497210;239;27619;-65
2022/12/03 00:10:08;;;;;;;16.27;10.82;;;0.90;99.90;;;;;;497198;239;27491;-65
2022/12/03 00:12:10;;;;;;;16.20;11.25;;;0.80;99.90;;;;;;497199;239;27492;-66
2022/12/03 00:14:11;;;;;;;15.73;10.77;;;0.80;99.90;;;;;;497163;239;27547;-66
2022/12/03 00:16:12;;;;;;;17.70;10.80;;;0.80;99.90;;;;;;497138;239;27483;-64
2022/12/03 00:18:13;;;;;;;15.25;10.35;;;0.80;99.90;;;;;;497191;239;28028;-67
2022/12/03 00:20:15;;;;;;;16.08;11.35;;;0.90;99.90;;;;;;497199;239;27983;-65
2022/12/03 00:22:16;;;;;;;16.20;10.85;;;0.90;99.90;;;;;;497188;239;27579;-66
2022/12/03 00:24:17;;;;;;;14.80;10.07;;;0.90;99.90;;;;;;497168;239;27452;-65
2022/12/03 00:26:18;;;;;;;16.40;10.68;;;0.90;99.90;;;;;;497147;239;27531;-65
2022/12/03 00:28:20;;;;;;;17.15;10.68;;;0.90;99.90;;;;;;497205;239;27604;-67
2022/12/03 00:30:21;;;;;;;15.93;10.98;;;0.90;99.90;;;;;;497194;239;27464;-64
2022/12/03 00:32:25;;;;;;;15.68;10.35;;;0.90;99.90;;;;;;497196;239;27936;-66
2022/12/03 00:34:26;;;;;;;14.90;9.95;;;0.80;99.90;;;;;;497156;239;27979;-65
2022/12/03 00:36:28;;;;;;;16.27;10.38;;;0.90;99.90;;;;;;497204;239;29108;-64
2022/12/03 00:38:29;;;;;;;19.52;10.93;;;0.90;99.90;;;;;;497212;239;27452;-65
2022/12/03 00:40:30;;;;;;;13.35;9.45;;;0.90;99.90;;;;;;497186;239;27484;-66
2022/12/03 00:42:32;;;;;;;13.65;9.00;;;0.90;99.90;;;;;;497166;239;27441;-64
2022/12/03 00:44:33;;;;;;;18.30;9.75;;;0.90;99.90;;;;;;497163;239;27491;-65
2022/12/03 00:46:34;;;;;;;14.50;9.38;;;0.90;99.90;;;;;;497220;239;27508;-68
2022/12/03 00:48:35;;;;;;;14.55;10.30;;;0.90;99.90;;;;;;497220;239;27453;-65
2022/12/03 00:50:37;;;;;;;15.27;8.98;;;0.90;99.90;;;;;;497197;239;27969;-65
2022/12/03 00:52:38;;;;;;;16.05;10.07;;;0.90;99.90;;;;;;497131;239;28042;-65
2022/12/03 00:54:39;;;;;;;15.63;9.43;;;0.90;99.90;;;;;;497202;239;27559;-66
2022/12/03 00:56:40;;;;;;;14.73;9.48;;;0.90;99.90;;;;;;497199;239;27420;-67
2022/12/03 00:58:42;;;;;;;15.05;9.40;;;0.90;99.90;;;;;;497169;239;27543;-65
2022/12/03 01:00:43;;;;;;;12.68;9.77;;;0.90;99.90;;;;;;497196;238;27489;-66
2022/12/03 01:02:44;;;;;;;15.43;9.20;;;0.80;99.90;;;;;;497189;239;27444;-65
2022/12/03 01:04:45;;;;;;;17.12;11.25;;;0.80;99.90;;;;;;497133;239;27574;-65
2022/12/03 01:06:47;;;;;;;13.50;8.93;;;0.80;99.90;;;;;;497223;239;27618;-68
2022/12/03 01:08:48;;;;;;;15.07;9.82;;;0.80;99.90;;;;;;497214;239;28007;-65
2022/12/03 01:10:49;;;;;;;14.50;9.70;;;0.70;99.90;;;;;;497182;239;28059;-66
2022/12/03 01:12:50;;;;;;;15.00;10.05;;;0.80;99.90;;;;;;497177;239;29067;-64
2022/12/03 01:14:52;;;;;;;14.90;9.70;;;0.80;99.90;;;;;;497190;239;27457;-65
2022/12/03 01:16:53;;;;;;;14.40;9.60;;;0.80;99.90;;;;;;497193;239;27512;-68
2022/12/03 01:18:54;;;;;;;15.40;9.90;;;0.80;99.90;;;;;;478344;239;27475;-65
2022/12/03 01:20:55;;;;;;;15.82;10.05;;;0.80;99.90;;;;;;470217;253;27469;-65
2022/12/03 01:22:57;;;;;;;17.48;10.00;;;0.80;99.90;;;;;;477008;249;27438;-65
2022/12/03 01:24:58;;;;;;;13.70;8.60;;;0.70;99.90;;;;;;477007;249;27486;-65
2022/12/03 01:26:59;;;;;;;13.73;9.05;;;0.80;99.90;;;;;;477006;249;28903;-68
2022/12/03 01:29:00;;;;;;;13.93;9.70;;;0.80;99.90;;;;;;477022;249;27890;-65
2022/12/03 01:33:21;;;;;;;15.82;9.57;;;0.80;99.90;;;;;;477018;245;27485;-67
2022/12/03 01:35:23;;;;;;;17.12;10.30;;;0.80;99.90;;;;;;477016;249;27442;-65
2022/12/03 01:37:24;;;;;;;14.15;9.50;;;0.80;99.90;;;;;;477005;249;27441;-66
2022/12/03 01:39:25;;;;;;;12.35;9.20;;;0.80;99.90;;;;;;477006;249;27506;-65
2022/12/03 01:41:26;;;;;;;15.35;9.35;;;0.80;99.90;;;;;;476977;249;27998;-65
2022/12/03 01:43:28;;;;;;;14.87;9.35;;;0.80;99.90;;;;;;477016;249;27958;-68
2022/12/03 01:45:29;;;;;;;15.70;9.93;;;0.80;99.90;;;;;;477012;249;29041;-65
2022/12/03 01:47:30;;;;;;;16.27;10.10;;;0.80;99.90;;;;;;477000;249;27486;-68
2022/12/03 01:49:31;;;;;;;15.38;10.23;;;0.80;99.90;;;;;;476974;249;27561;-65
2022/12/03 01:51:33;;;;;;;15.88;10.48;;;0.80;99.90;;;;;;477001;249;27482;-65
2022/12/03 01:53:34;;;;;;;16.25;10.40;;;0.80;99.90;;;;;;477019;249;27469;-67
2022/12/03 01:55:35;;;;;;;18.00;10.68;;;0.80;99.90;;;;;;476920;249;27423;-65
2022/12/03 01:57:36;;;;;;;15.80;10.82;;;0.80;99.90;;;;;;477007;249;27567;-65
2022/12/03 01:59:38;;;;;;;18.10;11.40;;;0.70;99.90;;;;;;476990;249;28692;-64
2022/12/03 02:01:39;;;;;;;18.10;12.15;;;0.80;99.90;;;;;;477020;249;27969;-65
2022/12/03 02:03:40;;;;;;;16.73;10.75;;;0.70;99.90;;;;;;477019;249;27533;-66
2022/12/03 02:05:41;;;;;;;18.40;10.40;;;0.70;99.90;;;;;;476965;249;27418;-66
2022/12/03 02:07:43;;;;;;;15.52;10.05;;;0.70;99.90;;;;;;476987;249;27630;-65
2022/12/03 02:09:44;;;;;;;21.52;12.10;;;0.80;99.90;;;;;;477001;249;27518;-65
2022/12/03 02:11:45;;;;;;;18.98;11.52;;;0.70;99.90;;;;;;477057;249;27438;-65
2022/12/03 02:13:47;;;;;;;19.92;12.45;;;0.70;99.90;;;;;;476904;249;27534;-67
2022/12/03 02:15:48;;;;;;;19.65;11.57;;;0.70;99.90;;;;;;477038;249;27449;-65
2022/12/03 02:17:49;;;;;;;18.58;11.25;;;0.70;99.90;;;;;;476988;249;27467;-65
2022/12/03 02:19:50;;;;;;;16.83;10.85;;;0.70;99.90;;;;;;477015;249;28354;-67
2022/12/03 02:21:52;;;;;;;17.52;11.32;;;0.70;99.90;;;;;;477061;249;28985;-65
2022/12/03 02:23:53;;;;;;;16.87;10.85;;;0.80;99.90;;;;;;477036;249;27450;-66
2022/12/03 02:25:54;;;;;;;18.25;10.75;;;0.70;99.90;;;;;;477009;249;27434;-65
2022/12/03 02:27:55;;;;;;;21.00;12.65;;;0.80;99.90;;;;;;477008;249;27581;-65
2022/12/03 02:29:57;;;;;;;20.15;11.95;;;0.70;99.90;;;;;;477025;249;27493;-68
2022/12/03 02:31:58;;;;;;;17.73;10.60;;;0.70;99.90;;;;;;477019;249;27495;-65
2022/12/03 02:33:59;;;;;;;16.55;10.00;;;0.70;99.90;;;;;;476931;249;27463;-65
2022/12/03 02:36:00;;;;;;;19.58;11.68;;;0.60;99.90;;;;;;477005;249;27973;-64
2022/12/03 02:38:02;;;;;;;18.75;11.52;;;0.70;99.90;;;;;;476983;249;27937;-65
2022/12/03 02:40:03;;;;;;;17.30;11.52;;;0.70;99.90;;;;;;477038;249;27543;-68
2022/12/03 02:44:25;;;;;;;19.42;11.82;;;0.70;99.90;;;;;;476971;249;28987;-64
2022/12/03 02:46:26;;;;;;;21.10;12.48;;;0.70;99.90;;;;;;477004;249;27430;-64
2022/12/03 02:48:27;;;;;;;19.60;10.93;;;0.60;99.90;;;;;;477006;249;27457;-66
2022/12/03 02:50:29;;;;;;;18.55;11.00;;;0.60;99.90;;;;;;476992;249;27533;-64
2022/12/03 02:52:30;;;;;;;18.05;11.60;;;0.70;99.90;;;;;;477008;249;27592;-64
2022/12/03 02:54:31;;;;;;;19.48;11.35;;;0.70;99.90;;;;;;476993;249;27443;-64
2022/12/03 02:56:32;;;;;;;22.37;12.68;;;0.70;99.90;;;;;;477028;249;27430;-64
2022/12/03 02:58:34;;;;;;;22.05;13.70;;;0.70;99.90;;;;;;477011;249;27921;-66
2022/12/03 03:00:35;;;;;;;20.33;12.20;;;0.70;99.90;;;;;;477015;249;27901;-64
2022/12/03 03:02:36;;;;;;;20.98;13.00;;;0.70;99.90;;;;;;477004;249;27549;-64
2022/12/03 03:04:37;;;;;;;25.23;13.23;;;0.70;99.90;;;;;;477007;249;27458;-64
2022/12/03 03:06:39;;;;;;;22.35;12.05;;;0.70;99.90;;;;;;476992;249;27552;-63
2022/12/03 03:08:40;;;;;;;22.50;12.68;;;0.70;99.90;;;;;;477009;249;27565;-64
2022/12/03 03:10:41;;;;;;;23.00;13.30;;;0.70;99.90;;;;;;476878;249;27525;-64
2022/12/03 03:12:42;;;;;;;25.75;14.57;;;0.60;99.90;;;;;;477006;249;27474;-66
2022/12/03 03:14:44;;;;;;;21.70;13.13;;;0.70;99.90;;;;;;476999;249;28657;-66
2022/12/03 03:16:54;;;;;;;20.08;12.32;;;0.70;99.90;;;;;;477013;249;27995;-66
2022/12/03 03:18:46;;;;;;;21.02;12.70;;;0.70;99.90;;;;;;476890;249;27457;-68
2022/12/03 03:20:47;;;;;;;19.15;12.52;;;0.70;99.90;;;;;;477006;249;27438;-66
2022/12/03 03:22:49;;;;;;;21.30;12.00;;;0.70;99.90;;;;;;477018;249;27492;-66
2022/12/03 03:24:50;;;;;;;20.62;12.50;;;0.70;99.90;;;;;;477000;245;27495;-66
2022/12/03 03:26:51;;;;;;;22.42;13.10;;;0.70;99.90;;;;;;477017;249;27462;-66
2022/12/03 03:28:52;;;;;;;20.85;12.70;;;0.70;99.90;;;;;;477028;249;28009;-67
2022/12/03 03:30:54;;;;;;;23.12;13.38;;;0.70;99.90;;;;;;476988;249;27878;-66
2022/12/03 03:32:55;;;;;;;24.37;14.75;;;0.70;99.90;;;;;;476994;249;27465;-65
2022/12/03 03:34:56;;;;;;;21.27;12.75;;;0.70;99.90;;;;;;476986;249;27513;-66
2022/12/03 03:36:57;;;;;;;21.90;13.43;;;0.60;99.90;;;;;;477007;245;27509;-66
2022/12/03 03:38:59;;;;;;;25.35;14.25;;;0.70;99.90;;;;;;477017;249;27478;-68
2022/12/03 03:41:00;;;;;;;22.20;11.93;;;0.70;99.90;;;;;;476990;249;27438;-66
2022/12/03 03:43:01;;;;;;;29.20;13.00;;;0.70;99.90;;;;;;476988;249;27477;-64
2022/12/03 03:45:02;;;;;;;22.55;12.60;;;0.70;99.90;;;;;;477000;249;28363;-64
2022/12/03 03:47:04;;;;;;;20.92;13.30;;;0.70;99.90;;;;;;477046;245;27894;-63
2022/12/03 03:49:05;;;;;;;21.62;13.25;;;0.60;99.90;;;;;;477012;249;27522;-65
2022/12/03 03:51:08;;;;;;;22.33;13.02;;;0.60;99.90;;;;;;476989;249;27435;-63
2022/12/03 03:53:08;;;;;;;22.15;12.70;;;0.60;99.90;;;;;;476958;249;27458;-64
2022/12/03 03:55:09;;;;;;;22.92;14.00;;;0.70;99.90;;;;;;477035;249;27501;-67
2022/12/03 03:57:10;;;;;;;22.80;13.73;;;0.70;99.90;;;;;;477018;249;27454;-66
2022/12/03 03:59:11;;;;;;;20.40;12.70;;;0.70;99.90;;;;;;477011;249;27478;-65
2022/12/03 04:01:13;;;;;;;20.50;12.93;;;0.70;99.90;;;;;;476980;249;28024;-64
2022/12/03 04:03:14;;;;;;;23.98;12.63;;;0.70;99.90;;;;;;476992;249;27972;-64
2022/12/03 04:05:15;;;;;;;22.60;13.35;;;0.70;99.90;;;;;;477038;249;27454;-64
2022/12/03 04:07:16;;;;;;;21.27;13.65;;;0.60;99.90;;;;;;477024;249;27437;-63
2022/12/03 04:09:18;;;;;;;21.27;12.85;;;0.60;99.90;;;;;;477003;249;27543;-64
2022/12/03 04:13:38;;;;;;;25.98;14.63;;;0.60;99.90;;;;;;476982;249;28055;-65
2022/12/03 04:15:40;;;;;;;21.40;12.23;;;0.60;99.90;;;;;;477005;249;27474;-68
2022/12/03 04:17:41;;;;;;;26.45;15.05;;;0.60;99.90;;;;;;476996;249;27423;-66
2022/12/03 04:19:42;;;;;;;25.95;12.70;;;0.60;99.90;;;;;;476993;249;27560;-66
2022/12/03 04:24:03;;;;;;;22.27;12.55;;;0.70;99.90;;;;;;477045;249;27934;-66
2022/12/03 04:30:43;;;;;;;23.33;14.20;;;0.60;99.90;;;;;;477019;249;27515;-66
2022/12/03 04:37:23;;;;;;;22.40;12.93;;;0.70;99.90;;;;;;476993;249;27450;-66
2022/12/03 04:39:25;;;;;;;22.55;12.07;;;0.70;99.90;;;;;;476988;249;27546;-67
2022/12/03 04:41:26;;;;;;;23.60;12.65;;;0.60;99.90;;;;;;477003;249;27978;-66
2022/12/03 04:43:27;;;;;;;26.15;13.75;;;0.70;99.90;;;;;;476999;249;27899;-66
2022/12/03 04:45:28;;;;;;;27.15;14.98;;;0.70;99.90;;;;;;477039;249;27585;-67
2022/12/03 04:47:30;;;;;;;23.80;13.15;;;0.60;99.90;;;;;;477005;245;27549;-65
2022/12/03 04:49:31;;;;;;;22.98;12.13;;;0.60;99.90;;;;;;477002;249;27474;-65
2022/12/03 04:51:32;;;;;;;26.85;14.05;;;0.60;99.90;;;;;;477026;249;27434;-65
2022/12/03 04:53:33;;;;;;;26.40;14.38;;;0.70;99.90;;;;;;477047;249;27443;-64
2022/12/03 04:55:35;;;;;;;27.87;14.45;;;0.70;99.90;;;;;;477032;249;27543;-67
2022/12/03 04:57:36;;;;;;;25.33;14.07;;;0.70;99.90;;;;;;477054;249;27983;-64
2022/12/03 04:59:37;;;;;;;24.50;14.73;;;0.70;99.90;;;;;;477030;249;28045;-65
2022/12/03 05:01:38;;;;;;;27.58;15.18;;;0.70;99.90;;;;;;476997;249;27532;-64
2022/12/03 05:03:40;;;;;;;26.40;14.80;;;0.70;99.90;;;;;;476994;249;27451;-64
2022/12/03 05:05:41;;;;;;;22.05;12.70;;;0.60;99.90;;;;;;477042;249;27550;-67
2022/12/03 05:07:42;;;;;;;27.10;15.10;;;0.60;99.90;;;;;;477030;249;27449;-64
2022/12/03 05:09:43;;;;;;;31.02;15.55;;;0.70;99.90;;;;;;477035;249;27466;-65
2022/12/03 05:11:45;;;;;;;23.17;13.85;;;0.60;99.90;;;;;;477016;249;27437;-64
2022/12/03 05:13:46;;;;;;;28.55;16.15;;;0.60;99.90;;;;;;477019;249;27997;-64
2022/12/03 05:15:47;;;;;;;27.92;14.65;;;0.60;99.90;;;;;;477048;249;29142;-67
2022/12/03 05:17:48;;;;;;;27.67;14.95;;;0.60;99.90;;;;;;477027;249;27419;-64
2022/12/03 05:22:09;;;;;;;27.48;14.32;;;0.70;99.90;;;;;;477023;249;27496;-66
2022/12/03 05:24:11;;;;;;;30.60;15.15;;;0.60;99.90;;;;;;477024;249;27514;-67
2022/12/03 05:26:12;;;;;;;24.15;13.70;;;0.60;99.90;;;;;;477021;249;27480;-67
2022/12/03 05:28:13;;;;;;;27.83;15.05;;;0.60;99.90;;;;;;477024;249;27434;-64
2022/12/03 05:30:14;;;;;;;25.05;13.85;;;0.70;99.90;;;;;;476999;245;27554;-65
2022/12/03 05:32:16;;;;;;;29.08;14.52;;;0.70;99.90;;;;;;477029;249;27501;-67
2022/12/03 05:34:17;;;;;;;26.05;14.13;;;0.70;99.90;;;;;;477008;249;27883;-64
2022/12/03 05:36:18;;;;;;;27.27;15.55;;;0.70;99.90;;;;;;477016;249;29076;-65
2022/12/03 05:38:19;;;;;;;30.02;15.38;;;0.70;99.90;;;;;;477022;249;27481;-64
2022/12/03 05:40:21;;;;;;;25.70;14.38;;;0.70;99.90;;;;;;476985;249;27551;-64
2022/12/03 05:44:42;;;;;;;32.60;15.43;;;0.70;99.90;;;;;;477012;249;27430;-66
2022/12/03 05:46:43;;;;;;;33.90;18.05;;;0.60;99.90;;;;;;476996;249;27568;-64
2022/12/03 05:48:44;;;;;;;31.92;16.02;;;0.60;99.90;;;;;;477046;249;27581;-67
2022/12/03 05:50:45;;;;;;;33.33;16.05;;;0.60;99.90;;;;;;477048;249;27514;-64
2022/12/03 05:52:47;;;;;;;35.90;16.17;;;0.70;99.90;;;;;;477019;249;27458;-65
2022/12/03 05:54:48;;;;;;;31.48;15.93;;;0.70;99.90;;;;;;476990;249;27421;-65
2022/12/03 05:56:49;;;;;;;31.67;15.80;;;0.70;99.90;;;;;;476978;249;28422;-64
2022/12/03 05:58:50;;;;;;;34.50;18.35;;;0.70;99.90;;;;;;477023;249;29148;-67
2022/12/03 06:00:52;;;;;;;33.40;16.17;;;0.70;99.90;;;;;;477013;249;27423;-64
2022/12/03 06:02:53;;;;;;;27.80;15.10;;;0.70;99.90;;;;;;477009;249;27564;-65
2022/12/03 06:04:54;;;;;;;33.67;17.25;;;0.70;99.90;;;;;;477004;249;27509;-64
2022/12/03 06:06:55;;;;;;;35.65;16.52;;;0.60;99.90;;;;;;477007;249;27466;-64
2022/12/03 06:08:57;;;;;;;31.58;15.48;;;0.70;99.90;;;;;;477029;249;27549;-67
2022/12/03 06:10:58;;;;;;;31.08;16.40;;;0.80;99.90;;;;;;477006;249;27438;-67
2022/12/03 06:12:59;;;;;;;28.45;14.80;;;0.70;99.90;;;;;;476981;249;27997;-66
2022/12/03 06:15:00;;;;;;;34.38;16.70;;;0.70;99.90;;;;;;477000;249;28032;-64
2022/12/03 06:17:02;;;;;;;36.05;17.15;;;0.70;99.90;;;;;;477020;249;27526;-64
2022/12/03 06:19:03;;;;;;;37.90;17.83;;;0.70;99.90;;;;;;476986;249;27580;-67
2022/12/03 06:21:04;;;;;;;32.50;16.45;;;0.60;99.90;;;;;;476970;249;27617;-64
2022/12/03 06:23:05;;;;;;;33.63;18.05;;;0.60;99.90;;;;;;476997;249;27508;-64
2022/12/03 06:25:07;;;;;;;38.42;18.70;;;0.60;99.90;;;;;;476904;249;27429;-64
2022/12/03 06:27:08;;;;;;;35.80;18.15;;;0.70;99.90;;;;;;476790;249;28002;-65
2022/12/03 06:29:09;;;;;;;36.78;16.90;;;0.70;99.90;;;;;;476839;249;28068;-66
2022/12/03 06:31:10;;;;;;;35.65;17.65;;;0.70;99.90;;;;;;476826;249;27462;-64
2022/12/03 06:33:12;;;;;;;36.72;17.00;;;0.70;99.90;;;;;;476826;249;27470;-64
2022/12/03 06:35:13;;;;;;;38.22;18.17;;;0.60;99.90;;;;;;476975;249;27427;-64
2022/12/03 06:37:14;;;;;;;37.10;17.60;;;0.70;99.90;;;;;;477014;245;27430;-64
2022/12/03 06:39:16;;;;;;;38.03;18.73;;;0.70;99.90;;;;;;477025;249;27513;-66
2022/12/03 06:41:17;;;;;;;41.15;19.08;;;0.60;99.90;;;;;;477004;249;27513;-64
2022/12/03 06:43:18;;;;;;;45.33;18.02;;;0.60;99.90;;;;;;477030;249;28021;-64
2022/12/03 06:45:19;;;;;;;42.53;18.90;;;0.50;99.90;;;;;;476995;249;27869;-64
2022/12/03 06:47:21;;;;;;;39.35;18.95;;;0.60;99.90;;;;;;476996;249;27493;-64
2022/12/03 06:49:22;;;;;;;40.03;19.83;;;0.60;99.90;;;;;;477029;249;27585;-67
2022/12/03 06:51:23;;;;;;;45.90;19.52;;;0.60;99.90;;;;;;476989;249;27514;-64
2022/12/03 06:53:24;;;;;;;42.90;19.65;;;0.60;99.90;;;;;;476981;249;27443;-64
2022/12/03 06:55:26;;;;;;;44.83;20.37;;;0.60;99.90;;;;;;477024;249;27518;-64
2022/12/03 06:57:27;;;;;;;38.88;19.02;;;0.60;99.90;;;;;;476925;249;27447;-64
2022/12/03 06:59:28;;;;;;;40.65;19.95;;;0.70;99.90;;;;;;477055;249;27942;-67
2022/12/03 07:01:29;;;;;;;42.88;20.80;;;0.70;99.90;;;;;;477036;249;27881;-64
2022/12/03 07:03:31;;;;;;;42.60;19.67;;;0.70;99.90;;;;;;476996;249;27585;-64
2022/12/03 07:05:32;;;;;;;39.42;18.73;;;0.80;99.90;;;;;;477005;249;27502;-64
2022/12/03 07:07:33;;;;;;;43.00;19.60;;;0.80;99.90;;;;;;476991;249;27544;-64
2022/12/03 07:09:34;;;;;;;44.55;19.73;;;0.70;99.90;;;;;;477017;249;27540;-66
2022/12/03 07:11:39;;;;;;;41.58;20.30;;;0.70;99.90;;;;;;476993;249;27502;-63
2022/12/03 07:13:40;;;;;;;34.80;18.52;;;0.80;99.90;;;;;;476978;245;27453;-64
2022/12/03 07:15:41;;;;;;;47.00;19.83;;;0.80;99.90;;;;;;476990;245;27466;-64
2022/12/03 07:17:42;;;;;;;37.88;18.35;;;0.90;99.90;;;;;;477012;245;28509;-64
2022/12/03 07:19:44;;;;;;;33.25;17.77;;;0.80;99.90;;;;;;477006;249;27908;-64
2022/12/03 07:21:45;;;;;;;38.72;19.02;;;0.90;99.90;;;;;;476993;245;27549;-65
2022/12/03 07:23:46;;;;;;;41.78;18.20;;;0.80;99.90;;;;;;477019;249;27437;-63
2022/12/03 07:25:47;;;;;;;38.55;19.87;;;0.90;99.90;;;;;;476970;249;27470;-65
2022/12/03 07:27:50;;;;;;;41.05;19.27;;;0.90;99.90;;;;;;477034;249;27454;-67
2022/12/03 07:29:51;;;;;;;37.42;19.02;;;1.00;99.90;;;;;;477039;249;27477;-65
2022/12/03 07:31:52;;;;;;;41.17;19.27;;;0.90;99.90;;;;;;476987;249;27871;-64
2022/12/03 07:33:54;;;;;;;47.78;21.17;;;0.80;99.90;;;;;;477000;249;27951;-64
2022/12/03 07:35:55;;;;;;;38.50;20.27;;;0.80;99.90;;;;;;477004;249;27470;-67
2022/12/03 07:37:56;;;;;;;39.47;19.20;;;0.90;99.90;;;;;;476992;249;27513;-64
2022/12/03 07:39:57;;;;;;;38.55;19.52;;;0.90;99.90;;;;;;476943;249;27469;-64
2022/12/03 07:41:59;;;;;;;44.88;19.90;;;0.90;99.90;;;;;;476998;249;27430;-64
2022/12/03 07:44:00;;;;;;;46.40;23.12;;;0.90;99.90;;;;;;476970;249;27528;-64
2022/12/03 07:46:01;;;;;;;42.60;21.15;;;0.90;99.90;;;;;;477025;249;27558;-67
2022/12/03 07:48:02;;;;;;;38.08;19.77;;;0.90;99.90;;;;;;476990;249;27977;-64
2022/12/03 07:50:04;;;;;;;43.10;20.52;;;1.00;99.90;;;;;;476979;249;27932;-64
2022/12/03 07:52:06;;;;;;;41.85;20.50;;;1.00;99.90;;;;;;476992;249;27494;-64
2022/12/03 07:54:06;;;;;;;48.38;22.65;;;0.90;99.90;;;;;;476998;249;27557;-64
2022/12/03 07:56:07;;;;;;;44.17;21.27;;;0.90;99.90;;;;;;477012;249;27473;-67
2022/12/03 07:58:09;;;;;;;51.60;21.77;;;0.90;99.90;;;;;;477027;249;27522;-64
2022/12/03 08:00:10;;;;;;;43.35;19.98;;;0.90;99.90;;;;;;477028;249;27461;-64
2022/12/03 08:02:11;;;;;;;47.70;20.85;;;1.00;99.90;;;;;;477017;249;27466;-63
2022/12/03 08:04:13;;;;;;;41.10;20.48;;;0.90;99.90;;;;;;477032;245;27887;-63
2022/12/03 08:06:14;;;;;;;44.78;19.75;;;0.90;99.90;;;;;;477014;249;27925;-66
2022/12/03 08:08:15;;;;;;;39.88;20.08;;;0.90;99.90;;;;;;477030;249;27419;-64
2022/12/03 08:10:16;;;;;;;46.25;21.65;;;0.90;99.90;;;;;;476982;249;27541;-65
2022/12/03 08:12:17;;;;;;;46.33;19.85;;;0.90;99.90;;;;;;476981;249;27518;-64
2022/12/03 08:14:19;;;;;;;43.35;20.70;;;0.90;99.90;;;;;;477023;249;27534;-64
2022/12/03 08:16:20;;;;;;;43.87;21.67;;;1.00;99.90;;;;;;477023;249;27553;-65
2022/12/03 08:18:21;;;;;;;45.10;20.02;;;0.90;99.90;;;;;;477006;249;27998;-66
2022/12/03 08:20:22;;;;;;;49.05;21.10;;;0.90;99.90;;;;;;477028;249;27949;-64
2022/12/03 08:22:24;;;;;;;44.75;21.40;;;0.90;99.90;;;;;;477012;249;27850;-65
2022/12/03 08:24:25;;;;;;;49.85;22.52;;;0.90;99.90;;;;;;477001;249;27425;-65
2022/12/03 08:26:26;;;;;;;45.47;22.08;;;0.90;99.90;;;;;;477030;249;27478;-65
2022/12/03 08:28:27;;;;;;;47.20;22.02;;;0.90;99.90;;;;;;477036;249;27530;-66
2022/12/03 08:30:29;;;;;;;48.22;21.15;;;0.90;99.90;;;;;;477014;249;27470;-67
2022/12/03 08:32:30;;;;;;;51.78;22.95;;;0.90;99.90;;;;;;476999;246;27957;-66
2022/12/03 08:34:31;;;;;;;48.42;21.20;;;0.90;99.90;;;;;;477028;249;27930;-64
2022/12/03 08:36:33;;;;;;;46.45;22.75;;;0.90;99.90;;;;;;477024;249;28035;-65
2022/12/03 08:38:34;;;;;;;42.47;21.45;;;0.90;99.90;;;;;;476982;249;27421;-64
2022/12/03 08:40:35;;;;;;;48.85;22.15;;;0.90;99.90;;;;;;476986;249;27464;-65
2022/12/03 08:42:42;;;;;;;45.90;22.90;;;0.80;99.90;;;;;;477034;249;27548;-64
2022/12/03 08:44:43;;;;;;;48.40;21.95;;;0.90;99.90;;;;;;477036;249;27454;-64
2022/12/03 08:46:44;;;;;;;45.28;20.10;;;0.80;99.90;;;;;;477026;249;27497;-66
2022/12/03 08:48:46;;;;;;;48.20;23.33;;;0.80;99.90;;;;;;477023;249;28719;-64
2022/12/03 08:50:47;;;;;;;48.10;21.37;;;0.80;99.90;;;;;;477030;249;28052;-64
2022/12/03 08:52:48;;;;;;;48.05;22.20;;;0.90;99.90;;;;;;477012;249;27572;-64
2022/12/03 08:54:50;;;;;;;52.00;20.80;;;0.90;99.90;;;;;;477045;249;27427;-65
2022/12/03 08:56:51;;;;;;;47.00;21.98;;;0.90;99.90;;;;;;477010;249;27575;-66
2022/12/03 08:58:52;;;;;;;43.50;20.00;;;0.90;99.90;;;;;;477020;249;27510;-64
2022/12/03 09:00:53;;;;;;;47.45;22.55;;;1.00;99.90;;;;;;477017;249;27554;-65
2022/12/03 09:02:55;;;;;;;41.13;20.67;;;1.00;99.90;;;;;;477018;249;28072;-64
2022/12/03 09:04:56;;;;;;;45.25;21.23;;;1.00;99.90;;;;;;477043;249;27891;-65
2022/12/03 09:06:57;;;;;;;48.67;21.30;;;1.10;99.90;;;;;;477022;249;27933;-67
2022/12/03 09:08:58;;;;;;;48.30;23.65;;;0.90;99.90;;;;;;477018;249;27414;-64
2022/12/03 09:11:00;;;;;;;48.40;21.40;;;0.90;99.90;;;;;;477026;249;27477;-65
2022/12/03 09:13:01;;;;;;;39.10;19.37;;;0.90;99.90;;;;;;476941;249;27482;-65
2022/12/03 09:15:02;;;;;;;44.45;21.35;;;1.00;99.90;;;;;;477051;249;27522;-64
2022/12/03 09:17:03;;;;;;;45.33;21.37;;;1.00;99.90;;;;;;476962;249;27476;-66
2022/12/03 09:19:05;;;;;;;47.65;21.17;;;1.10;99.90;;;;;;477000;249;27875;-64
2022/12/03 09:21:06;;;;;;;45.40;20.92;;;1.10;99.90;;;;;;476982;249;28004;-64
2022/12/03 09:23:07;;;;;;;48.75;21.25;;;1.10;99.90;;;;;;477004;249;27714;-64
2022/12/03 09:25:08;;;;;;;41.40;20.55;;;1.20;99.90;;;;;;477040;249;27431;-65
2022/12/03 09:27:10;;;;;;;45.60;21.95;;;1.20;99.90;;;;;;477028;249;27469;-65
2022/12/03 09:29:11;;;;;;;47.47;21.67;;;1.20;99.90;;;;;;477010;249;27470;-64
2022/12/03 09:31:12;;;;;;;41.70;20.62;;;1.20;99.90;;;;;;477013;249;27542;-65
2022/12/03 09:33:13;;;;;;;47.38;21.70;;;1.20;99.90;;;;;;477021;245;27833;-68
2022/12/03 09:35:15;;;;;;;40.25;19.98;;;1.20;99.90;;;;;;477025;245;27894;-64
2022/12/03 09:37:16;;;;;;;47.08;20.83;;;1.30;99.90;;;;;;476983;249;27936;-64
2022/12/03 09:39:17;;;;;;;42.58;20.37;;;1.30;99.90;;;;;;477008;249;27422;-69
2022/12/03 09:41:18;;;;;;;41.45;19.35;;;1.30;99.90;;;;;;477006;249;27557;-64
2022/12/03 09:43:20;;;;;;;47.80;22.62;;;1.30;99.90;;;;;;477031;249;27538;-65
2022/12/03 09:45:21;;;;;;;48.25;22.17;;;1.30;99.90;;;;;;477029;249;27585;-64
2022/12/03 09:47:22;;;;;;;50.12;22.50;;;1.30;99.90;;;;;;476998;249;27469;-65
2022/12/03 09:49:23;;;;;;;44.95;23.12;;;1.20;99.90;;;;;;477019;249;27812;-64
2022/12/03 09:51:25;;;;;;;45.33;21.37;;;1.30;99.90;;;;;;476996;249;28061;-65
2022/12/03 09:53:26;;;;;;;48.85;22.90;;;1.30;99.90;;;;;;477018;249;28046;-67
2022/12/03 09:55:27;;;;;;;46.35;24.20;;;1.30;99.90;;;;;;477025;249;27437;-64
2022/12/03 09:57:28;;;;;;;50.10;23.58;;;1.30;99.90;;;;;;476962;249;27477;-65
2022/12/03 09:59:30;;;;;;;44.03;22.67;;;1.30;99.90;;;;;;477005;249;27434;-64
2022/12/03 10:01:31;;;;;;;44.15;22.75;;;1.30;99.90;;;;;;476997;249;27493;-64
2022/12/03 10:03:33;;;;;;;45.17;22.08;;;1.20;99.90;;;;;;476950;249;27505;-67
2022/12/03 10:05:34;;;;;;;47.15;22.67;;;1.30;99.90;;;;;;477019;249;27478;-67
2022/12/03 10:07:36;;;;;;;52.83;23.90;;;1.30;99.90;;;;;;476999;249;28003;-64
2022/12/03 10:09:37;;;;;;;44.58;21.30;;;1.20;99.90;;;;;;476997;249;27965;-65
2022/12/03 10:11:38;;;;;;;47.80;22.80;;;1.20;99.90;;;;;;476991;249;27828;-64
2022/12/03 10:13:39;;;;;;;48.08;21.35;;;1.20;99.90;;;;;;477035;249;27438;-64
2022/12/03 10:15:41;;;;;;;47.03;21.60;;;1.30;99.90;;;;;;477031;249;27564;-66
2022/12/03 10:17:42;;;;;;;44.33;22.50;;;1.30;99.90;;;;;;477006;249;27466;-64
2022/12/03 10:19:43;;;;;;;45.08;20.23;;;1.40;99.90;;;;;;477013;249;27478;-64
2022/12/03 10:21:44;;;;;;;41.33;20.75;;;1.40;99.90;;;;;;476996;249;27895;-64
2022/12/03 10:23:49;;;;;;;57.00;20.77;;;1.30;99.90;;;;;;477013;249;28018;-64
2022/12/03 10:25:50;;;;;;;38.70;18.90;;;1.30;99.90;;;;;;477010;249;27422;-65
2022/12/03 10:27:51;;;;;;;41.65;20.48;;;1.30;99.90;;;;;;477027;249;27572;-65
2022/12/03 10:29:52;;;;;;;40.17;20.70;;;1.40;99.90;;;;;;476994;249;27461;-65
2022/12/03 10:31:54;;;;;;;46.50;22.02;;;1.40;99.90;;;;;;476991;249;27557;-65
2022/12/03 10:33:55;;;;;;;40.92;19.85;;;1.40;99.90;;;;;;477015;249;28024;-67
2022/12/03 10:35:56;;;;;;;36.67;20.08;;;1.40;99.90;;;;;;476943;249;27982;-65
2022/12/03 10:37:58;;;;;;;42.85;19.77;;;1.40;99.90;;;;;;477020;249;28028;-66
2022/12/03 10:39:59;;;;;;;40.97;20.67;;;1.40;99.90;;;;;;476996;249;27430;-64
2022/12/03 10:42:00;;;;;;;38.40;19.45;;;1.40;99.90;;;;;;477004;249;27458;-65
2022/12/03 10:44:01;;;;;;;38.13;19.70;;;1.40;99.90;;;;;;476987;249;27446;-64
2022/12/03 10:46:02;;;;;;;42.92;21.20;;;1.50;99.90;;;;;;477011;249;27466;-65